Time;durP1;ratioP1;P1;durP2;ratioP2;P2;SDS_P1;SDS_P2;PMS_P1;PMS_P2;Temp;Humidity;BMP_temperature;BMP_pressure;BME280_temperature;BME280_humidity;BME280_pressure;Samples;Min_cycle;Max_cycle;Signal;HPM_P1;HPM_P2
2021/10/05 00:02:12;;;;;;;6.90;4.85;;;15.20;85.60;;;;;;4992439;28;20034;-61
2021/10/05 00:04:38;;;;;;;7.40;4.80;;;15.20;85.80;;;;;;4992574;28;20026;-61
2021/10/05 00:07:04;;;;;;;7.32;4.50;;;15.20;85.90;;;;;;4998573;28;20030;-62
2021/10/05 00:09:30;;;;;;;7.00;4.75;;;15.20;86.60;;;;;;5019703;28;20476;-62
2021/10/05 00:11:55;;;;;;;7.63;4.65;;;15.20;87.50;;;;;;5016084;28;20034;-62
2021/10/05 00:14:21;;;;;;;8.25;4.65;;;15.20;88.30;;;;;;5012420;28;20048;-61
2021/10/05 00:16:47;;;;;;;9.48;4.85;;;15.20;87.80;;;;;;5011820;28;20451;-61
2021/10/05 00:19:13;;;;;;;8.00;4.97;;;15.20;87.80;;;;;;5011438;28;20057;-62
2021/10/05 00:21:38;;;;;;;7.07;4.75;;;15.20;88.10;;;;;;5012136;28;20033;-62
2021/10/05 00:24:04;;;;;;;6.90;4.75;;;15.20;88.10;;;;;;5010419;28;20396;-61
2021/10/05 00:26:29;;;;;;;7.30;4.80;;;15.20;88.60;;;;;;5010122;28;20033;-62
2021/10/05 00:28:55;;;;;;;7.10;4.85;;;15.20;88.50;;;;;;5009387;28;20029;-62
2021/10/05 00:31:20;;;;;;;8.02;4.97;;;15.20;88.10;;;;;;5010767;28;20030;-61
2021/10/05 00:33:46;;;;;;;7.47;4.82;;;15.20;88.00;;;;;;5010022;28;20451;-61
2021/10/05 00:36:11;;;;;;;6.55;4.68;;;15.20;88.00;;;;;;5011136;28;20396;-62
2021/10/05 00:38:37;;;;;;;6.80;5.10;;;15.20;87.90;;;;;;5011211;28;20034;-61
2021/10/05 00:41:03;;;;;;;7.80;5.30;;;15.20;88.20;;;;;;5011560;28;20029;-61
2021/10/05 00:43:29;;;;;;;7.25;4.97;;;15.20;88.00;;;;;;5006116;28;20026;-61
2021/10/05 00:45:55;;;;;;;7.50;4.78;;;15.10;88.00;;;;;;4991750;28;20076;-62
2021/10/05 00:48:20;;;;;;;7.68;5.55;;;15.10;87.90;;;;;;4991583;28;20026;-60
2021/10/05 00:50:46;;;;;;;6.88;4.95;;;15.10;87.80;;;;;;4991724;28;20529;-61
2021/10/05 00:53:12;;;;;;;8.18;5.28;;;15.10;87.70;;;;;;4991998;28;20031;-61
2021/10/05 00:55:38;;;;;;;7.13;5.00;;;15.10;87.70;;;;;;4999424;28;20029;-61
2021/10/05 00:58:04;;;;;;;8.70;5.40;;;15.10;87.70;;;;;;5030965;28;20108;-61
2021/10/05 01:00:30;;;;;;;7.30;5.15;;;15.10;87.80;;;;;;5029574;28;20498;-61
2021/10/05 01:02:58;;;;;;;7.57;5.43;;;15.10;87.90;;;;;;5031075;28;20060;-61
2021/10/05 01:05:23;;;;;;;8.75;5.65;;;15.10;88.10;;;;;;5030906;28;20029;-61
2021/10/05 01:07:49;;;;;;;8.05;5.28;;;15.10;88.30;;;;;;5030808;28;20032;-61
2021/10/05 01:10:19;;;;;;;7.70;5.03;;;15.20;88.60;;;;;;5030855;28;20538;-61
2021/10/05 01:12:49;;;;;;;8.93;5.05;;;15.10;88.20;;;;;;5000807;28;20034;-61
2021/10/05 01:15:17;;;;;;;8.07;5.25;;;15.20;88.00;;;;;;5007086;28;20018;-61
2021/10/05 01:17:42;;;;;;;7.90;4.95;;;15.20;87.90;;;;;;5017107;28;20366;-60
2021/10/05 01:20:09;;;;;;;7.13;5.05;;;15.10;88.10;;;;;;5010006;28;20026;-61
2021/10/05 01:22:35;;;;;;;7.38;4.70;;;15.20;88.10;;;;;;5011122;28;20076;-61
2021/10/05 01:25:09;;;;;;;7.55;5.40;;;15.20;87.70;;;;;;5011017;28;20022;-62
2021/10/05 01:27:49;;;;;;;7.63;4.90;;;15.20;87.90;;;;;;5010553;28;20048;-61
2021/10/05 01:30:17;;;;;;;8.10;5.43;;;15.20;88.40;;;;;;5010776;28;20080;-61
2021/10/05 01:32:44;;;;;;;7.97;5.28;;;15.20;88.20;;;;;;5010881;28;20117;-61
2021/10/05 01:35:09;;;;;;;8.30;5.47;;;15.20;88.70;;;;;;5010868;28;20485;-62
2021/10/05 01:37:35;;;;;;;8.02;5.50;;;15.20;88.70;;;;;;5010672;28;20040;-62
2021/10/05 01:40:03;;;;;;;8.55;5.55;;;15.20;88.60;;;;;;5009439;28;20025;-62
2021/10/05 01:42:28;;;;;;;8.52;5.15;;;15.20;88.50;;;;;;5010610;28;20030;-62
2021/10/05 01:44:55;;;;;;;9.43;6.28;;;15.20;88.70;;;;;;5010928;28;20405;-62
2021/10/05 01:47:21;;;;;;;8.35;5.68;;;15.10;88.60;;;;;;5010797;28;20114;-62
2021/10/05 01:49:46;;;;;;;9.43;5.93;;;15.10;88.80;;;;;;5010124;28;20109;-61
2021/10/05 01:52:12;;;;;;;7.97;5.70;;;15.10;88.60;;;;;;5017041;28;20033;-61
2021/10/05 01:54:37;;;;;;;8.52;5.70;;;15.10;88.70;;;;;;5030205;28;20025;-62
2021/10/05 01:57:03;;;;;;;9.55;6.10;;;15.10;88.90;;;;;;5014836;28;20067;-62
2021/10/05 01:59:29;;;;;;;8.73;5.60;;;15.10;89.00;;;;;;5010476;28;20071;-62
2021/10/05 02:01:55;;;;;;;8.50;5.57;;;15.10;89.00;;;;;;5009498;28;20392;-62
2021/10/05 02:04:21;;;;;;;9.07;6.07;;;15.10;89.20;;;;;;5010654;28;20026;-61
2021/10/05 02:06:46;;;;;;;7.60;5.50;;;15.10;89.40;;;;;;5010586;28;20392;-63
2021/10/05 02:09:13;;;;;;;8.38;5.95;;;15.10;89.10;;;;;;5010280;28;20156;-63
2021/10/05 02:11:39;;;;;;;8.75;6.22;;;15.10;89.20;;;;;;5010215;28;20026;-62
2021/10/05 02:14:05;;;;;;;8.38;5.80;;;15.20;89.40;;;;;;5010809;28;20045;-63
2021/10/05 02:16:32;;;;;;;8.32;6.00;;;15.10;89.60;;;;;;5010666;28;20531;-62
2021/10/05 02:18:58;;;;;;;10.88;6.32;;;15.10;89.60;;;;;;5010239;28;20038;-62
2021/10/05 02:21:24;;;;;;;10.32;6.55;;;15.10;89.70;;;;;;5017779;28;20024;-62
2021/10/05 02:26:34;;;;;;;10.45;6.40;;;15.10;89.60;;;;;;5010763;28;20506;-62
2021/10/05 02:29:00;;;;;;;9.32;6.20;;;15.10;89.70;;;;;;5009899;28;20034;-63
2021/10/05 02:31:26;;;;;;;8.30;6.13;;;15.10;89.60;;;;;;5011100;28;20509;-62
2021/10/05 02:33:52;;;;;;;9.35;5.90;;;15.10;89.30;;;;;;5013155;28;20030;-62
2021/10/05 02:36:17;;;;;;;10.25;6.53;;;15.10;89.70;;;;;;5013586;28;20026;-62
2021/10/05 02:38:43;;;;;;;11.10;6.47;;;15.10;89.90;;;;;;5013540;28;20088;-62
2021/10/05 02:41:09;;;;;;;9.52;6.50;;;15.10;90.10;;;;;;5013584;28;20029;-62
2021/10/05 02:43:35;;;;;;;12.48;6.82;;;15.10;90.10;;;;;;5013894;28;20042;-62
2021/10/05 02:46:00;;;;;;;12.40;6.60;;;15.10;90.10;;;;;;5013726;28;20061;-62
2021/10/05 02:48:26;;;;;;;10.27;6.93;;;15.10;90.10;;;;;;5013481;28;20088;-61
2021/10/05 02:50:52;;;;;;;10.57;6.95;;;15.00;90.20;;;;;;5012291;28;20026;-63
2021/10/05 02:53:17;;;;;;;16.05;7.05;;;15.00;90.20;;;;;;5011073;28;20108;-62
2021/10/05 02:55:43;;;;;;;16.65;7.30;;;15.00;90.20;;;;;;5011705;28;20137;-61
2021/10/05 02:58:09;;;;;;;11.23;6.55;;;15.00;90.20;;;;;;5013047;28;20057;-63
2021/10/05 03:00:34;;;;;;;11.80;7.32;;;15.00;90.10;;;;;;5013366;28;20065;-62
2021/10/05 03:03:00;;;;;;;10.70;6.47;;;15.00;90.00;;;;;;5011981;28;20022;-61
2021/10/05 03:05:26;;;;;;;14.93;7.05;;;15.00;90.10;;;;;;5013663;28;20093;-62
2021/10/05 03:07:51;;;;;;;13.85;6.78;;;15.00;90.10;;;;;;5013248;28;20025;-62
2021/10/05 03:10:17;;;;;;;9.23;6.53;;;15.00;90.10;;;;;;5012975;28;20472;-62
2021/10/05 03:12:43;;;;;;;10.88;6.75;;;15.00;90.00;;;;;;5013162;28;20550;-61
2021/10/05 03:15:08;;;;;;;11.05;7.18;;;15.00;90.00;;;;;;5013419;28;20018;-62
2021/10/05 03:17:34;;;;;;;8.20;6.30;;;15.00;90.10;;;;;;5012981;28;20153;-62
2021/10/05 03:20:00;;;;;;;9.77;6.38;;;15.00;90.00;;;;;;5012726;28;20033;-62
2021/10/05 03:22:25;;;;;;;10.27;6.50;;;15.10;90.00;;;;;;5013251;28;20612;-63
2021/10/05 03:24:51;;;;;;;11.30;7.20;;;15.10;89.70;;;;;;5012656;28;20124;-62
2021/10/05 03:27:16;;;;;;;14.23;7.10;;;15.10;89.80;;;;;;5016873;28;20100;-62
2021/10/05 03:29:42;;;;;;;14.38;7.05;;;15.10;89.90;;;;;;5026284;28;20029;-63
2021/10/05 03:32:08;;;;;;;8.90;6.63;;;15.10;90.10;;;;;;5032696;28;20048;-63
2021/10/05 03:34:34;;;;;;;12.73;7.18;;;15.10;90.00;;;;;;5031288;28;20075;-63
2021/10/05 03:36:59;;;;;;;12.13;7.50;;;15.00;90.10;;;;;;5032657;28;20037;-63
2021/10/05 03:39:25;;;;;;;10.05;6.72;;;15.10;90.10;;;;;;5030724;28;20043;-63
2021/10/05 03:41:51;;;;;;;10.05;7.55;;;15.10;90.00;;;;;;5032201;28;20079;-63
2021/10/05 03:44:17;;;;;;;12.18;7.38;;;15.00;90.10;;;;;;5020535;28;20425;-63
2021/10/05 03:46:42;;;;;;;11.02;6.82;;;15.00;90.20;;;;;;5012311;28;20040;-62
2021/10/05 03:49:08;;;;;;;10.38;7.30;;;15.00;90.20;;;;;;5012604;28;20378;-62
2021/10/05 03:51:33;;;;;;;11.07;7.15;;;15.00;90.40;;;;;;5011179;28;20121;-61
2021/10/05 03:53:59;;;;;;;11.98;7.80;;;15.00;90.40;;;;;;5008712;28;20041;-61
2021/10/05 03:56:25;;;;;;;10.75;7.47;;;15.00;90.20;;;;;;5013012;28;20030;-61
2021/10/05 03:58:50;;;;;;;11.10;7.93;;;15.00;90.40;;;;;;5002776;28;20078;-62
2021/10/05 04:01:16;;;;;;;10.48;7.25;;;15.00;90.30;;;;;;4992567;28;20038;-61
2021/10/05 04:03:41;;;;;;;9.07;7.43;;;15.00;90.30;;;;;;5005945;28;20029;-61
2021/10/05 04:06:08;;;;;;;10.23;7.30;;;15.00;90.40;;;;;;5020676;28;20025;-61
2021/10/05 04:08:34;;;;;;;11.13;7.53;;;15.00;90.20;;;;;;5001939;28;20034;-61
2021/10/05 04:11:01;;;;;;;10.18;7.18;;;15.00;90.50;;;;;;5001878;28;20525;-61
2021/10/05 04:13:26;;;;;;;10.70;7.20;;;15.10;89.80;;;;;;5007563;28;20030;-61
2021/10/05 04:15:52;;;;;;;12.55;7.40;;;15.10;89.60;;;;;;5012140;28;20492;-61
2021/10/05 04:18:18;;;;;;;12.27;7.60;;;15.10;89.40;;;;;;5010107;28;20026;-61
2021/10/05 04:20:43;;;;;;;10.02;7.22;;;15.10;89.60;;;;;;5007247;28;20034;-62
2021/10/05 04:23:09;;;;;;;9.30;7.43;;;15.10;89.40;;;;;;4992671;28;20040;-61
2021/10/05 04:25:34;;;;;;;10.07;6.97;;;15.10;89.60;;;;;;4992058;28;20018;-62
2021/10/05 04:28:00;;;;;;;9.85;6.97;;;15.10;89.70;;;;;;5000617;28;20049;-62
2021/10/05 04:30:26;;;;;;;9.73;7.72;;;15.10;89.60;;;;;;5008331;28;20069;-62
2021/10/05 04:32:51;;;;;;;10.50;7.68;;;15.00;89.70;;;;;;5007235;28;20034;-61
2021/10/05 04:35:17;;;;;;;11.20;7.85;;;15.00;90.00;;;;;;5007405;28;20076;-61
2021/10/05 04:37:43;;;;;;;11.75;7.85;;;15.00;90.00;;;;;;5005024;28;20038;-61
2021/10/05 04:40:09;;;;;;;12.05;7.85;;;15.00;90.00;;;;;;4993004;28;20065;-61
2021/10/05 04:42:35;;;;;;;9.75;7.43;;;15.00;90.10;;;;;;4996874;28;20026;-61
2021/10/05 04:45:01;;;;;;;10.98;8.20;;;15.00;90.00;;;;;;5010315;28;20583;-61
2021/10/05 04:47:27;;;;;;;10.82;7.63;;;15.00;90.10;;;;;;5006548;28;20466;-62
2021/10/05 04:49:53;;;;;;;9.52;7.63;;;15.00;90.10;;;;;;5005840;28;20049;-61
2021/10/05 04:52:18;;;;;;;11.10;7.30;;;15.00;89.90;;;;;;4997756;28;20034;-61
2021/10/05 04:54:44;;;;;;;11.30;8.00;;;15.00;89.70;;;;;;5002299;28;20038;-62
2021/10/05 04:57:09;;;;;;;10.25;7.38;;;15.10;89.60;;;;;;5007785;28;20417;-61
2021/10/05 04:59:35;;;;;;;12.20;8.15;;;15.10;89.50;;;;;;5010925;28;20018;-61
2021/10/05 05:02:00;;;;;;;9.57;7.35;;;15.10;89.10;;;;;;5018077;28;20034;-61
2021/10/05 05:04:26;;;;;;;10.73;7.50;;;15.10;89.10;;;;;;5008793;28;20083;-60
2021/10/05 05:06:51;;;;;;;12.90;8.20;;;15.10;89.10;;;;;;5010366;28;20672;-61
2021/10/05 05:09:17;;;;;;;9.95;7.22;;;15.10;89.60;;;;;;5002176;28;20105;-62
2021/10/05 05:11:43;;;;;;;10.23;7.25;;;15.10;89.40;;;;;;5008234;28;20037;-62
2021/10/05 05:14:10;;;;;;;11.32;8.27;;;15.00;90.10;;;;;;5006002;28;20058;-62
2021/10/05 05:16:37;;;;;;;17.25;8.32;;;15.00;90.10;;;;;;5007551;28;20703;-61
2021/10/05 05:19:04;;;;;;;10.63;8.15;;;15.00;90.10;;;;;;5006188;28;20404;-62
2021/10/05 05:21:30;;;;;;;13.07;8.80;;;15.00;90.10;;;;;;4994222;28;20070;-62
2021/10/05 05:23:56;;;;;;;11.70;7.85;;;15.00;90.10;;;;;;5001116;28;20456;-62
2021/10/05 05:26:22;;;;;;;10.70;7.72;;;15.00;90.10;;;;;;5010870;28;20038;-61
2021/10/05 05:28:47;;;;;;;10.32;7.70;;;15.00;90.00;;;;;;5010876;28;20519;-62
2021/10/05 05:31:14;;;;;;;11.82;8.10;;;15.00;90.00;;;;;;5011183;28;20033;-62
2021/10/05 05:33:39;;;;;;;13.02;7.95;;;15.00;89.70;;;;;;5011191;28;20032;-62
2021/10/05 05:36:05;;;;;;;15.52;8.48;;;15.00;89.90;;;;;;5011039;28;20046;-62
2021/10/05 05:38:30;;;;;;;11.65;8.10;;;15.00;89.80;;;;;;5009726;28;20461;-61
2021/10/05 05:40:56;;;;;;;12.13;7.82;;;15.00;89.70;;;;;;5010564;28;20396;-62
2021/10/05 05:43:21;;;;;;;11.23;8.05;;;15.00;89.50;;;;;;5010700;28;20037;-61
2021/10/05 05:45:47;;;;;;;19.17;7.88;;;15.00;89.40;;;;;;5010623;28;20111;-62
2021/10/05 05:48:12;;;;;;;18.17;8.68;;;15.00;89.10;;;;;;5008852;28;20190;-62
2021/10/05 05:50:38;;;;;;;17.67;8.32;;;15.00;88.90;;;;;;5010173;28;20500;-62
2021/10/05 05:53:04;;;;;;;17.17;7.95;;;15.00;89.70;;;;;;5009987;28;20030;-62
2021/10/05 05:55:29;;;;;;;14.30;8.15;;;15.00;88.70;;;;;;5012281;28;20282;-62
2021/10/05 05:57:55;;;;;;;11.05;8.02;;;15.00;88.80;;;;;;5030013;28;20057;-62
2021/10/05 06:00:21;;;;;;;12.88;8.65;;;15.00;89.20;;;;;;5029010;28;20395;-62
2021/10/05 06:02:47;;;;;;;12.27;8.38;;;15.00;89.10;;;;;;5029740;28;20021;-62
2021/10/05 06:05:13;;;;;;;11.88;8.35;;;14.90;89.20;;;;;;5031241;28;20559;-61
2021/10/05 06:07:39;;;;;;;13.43;8.75;;;14.90;89.20;;;;;;5034160;28;20036;-62
2021/10/05 06:10:06;;;;;;;11.73;8.65;;;14.90;90.00;;;;;;5033847;28;20445;-63
2021/10/05 06:12:39;;;;;;;11.35;8.32;;;14.80;90.10;;;;;;5034294;28;20052;-62
2021/10/05 06:15:16;;;;;;;13.02;8.55;;;14.80;90.20;;;;;;5034063;28;20025;-61
2021/10/05 06:17:43;;;;;;;11.32;8.98;;;14.80;90.40;;;;;;5026965;28;20049;-62
2021/10/05 06:20:13;;;;;;;11.32;8.90;;;14.80;90.50;;;;;;5014005;28;20022;-62
2021/10/05 06:22:40;;;;;;;11.38;9.02;;;14.80;90.70;;;;;;5014211;28;20036;-62
2021/10/05 06:25:09;;;;;;;11.80;8.60;;;14.70;90.50;;;;;;5012935;28;20029;-62
2021/10/05 06:27:35;;;;;;;12.32;8.95;;;14.80;90.20;;;;;;5012610;28;20030;-61
2021/10/05 06:30:01;;;;;;;11.43;8.90;;;14.80;90.10;;;;;;5013470;28;20034;-62
2021/10/05 06:32:27;;;;;;;15.82;9.43;;;14.80;90.20;;;;;;5013927;28;20038;-62
2021/10/05 06:34:53;;;;;;;11.20;9.18;;;14.70;90.40;;;;;;5014074;28;20061;-62
2021/10/05 06:37:19;;;;;;;11.93;9.38;;;14.70;90.50;;;;;;5013664;28;20037;-62
2021/10/05 06:39:45;;;;;;;12.50;9.15;;;14.70;90.50;;;;;;5013636;28;20057;-63
2021/10/05 06:42:11;;;;;;;12.77;9.25;;;14.70;90.30;;;;;;5011789;28;20065;-62
2021/10/05 06:44:37;;;;;;;12.93;9.52;;;14.70;90.20;;;;;;5014413;28;20101;-63
2021/10/05 06:47:02;;;;;;;10.60;8.45;;;14.80;90.30;;;;;;5014096;28;20462;-61
2021/10/05 06:49:28;;;;;;;14.07;9.80;;;14.80;90.10;;;;;;5014090;28;20029;-62
2021/10/05 06:51:54;;;;;;;12.60;9.50;;;14.70;90.40;;;;;;5014289;28;20108;-62
2021/10/05 06:54:19;;;;;;;12.50;9.35;;;14.70;90.40;;;;;;5009943;28;20075;-62
2021/10/05 06:56:45;;;;;;;78.47;13.70;;;14.80;90.50;;;;;;4992528;28;20034;-61
2021/10/05 06:59:10;;;;;;;58.03;12.93;;;14.70;90.50;;;;;;4992514;28;20034;-62
2021/10/05 07:01:36;;;;;;;50.17;10.77;;;14.80;90.40;;;;;;4993680;28;20175;-61
2021/10/05 07:04:01;;;;;;;30.27;11.05;;;14.80;90.10;;;;;;4993028;28;20474;-61
2021/10/05 07:06:27;;;;;;;26.92;11.10;;;14.90;90.00;;;;;;4994429;28;20030;-62
2021/10/05 07:08:54;;;;;;;21.40;11.45;;;14.80;88.20;;;;;;5006384;28;20052;-61
2021/10/05 07:11:20;;;;;;;18.58;12.23;;;14.50;88.80;;;;;;5013779;28;20108;-62
2021/10/05 07:13:45;;;;;;;18.05;10.98;;;14.30;89.90;;;;;;5005571;28;20102;-61
2021/10/05 07:16:11;;;;;;;15.73;11.32;;;14.10;90.30;;;;;;5004229;28;20095;-62
2021/10/05 07:18:37;;;;;;;20.38;12.35;;;14.00;91.10;;;;;;5011180;28;20474;-62
2021/10/05 07:21:02;;;;;;;20.83;12.18;;;14.00;90.90;;;;;;5013037;28;20456;-62
2021/10/05 07:23:28;;;;;;;17.35;11.18;;;14.00;91.00;;;;;;5013744;28;20493;-62
2021/10/05 07:25:54;;;;;;;16.48;11.85;;;13.90;91.10;;;;;;5013769;28;20044;-63
2021/10/05 07:28:20;;;;;;;15.45;11.13;;;13.90;91.40;;;;;;5013842;28;20060;-62
2021/10/05 07:30:46;;;;;;;17.13;11.98;;;13.80;91.50;;;;;;5013880;28;20503;-62
2021/10/05 07:33:12;;;;;;;15.63;11.35;;;13.70;91.80;;;;;;5013766;28;20045;-62
2021/10/05 07:35:38;;;;;;;15.02;11.30;;;13.70;91.90;;;;;;5013585;28;20485;-62
2021/10/05 07:38:03;;;;;;;16.05;11.50;;;13.70;92.00;;;;;;5013271;28;20121;-62
2021/10/05 07:40:30;;;;;;;15.02;11.38;;;13.80;92.00;;;;;;5013366;28;20037;-62
2021/10/05 07:42:57;;;;;;;15.70;11.43;;;13.80;91.80;;;;;;5013365;28;20101;-61
2021/10/05 07:45:25;;;;;;;14.13;11.25;;;13.90;91.80;;;;;;5013491;28;20473;-62
2021/10/05 07:47:51;;;;;;;14.32;9.93;;;14.00;91.40;;;;;;5013423;28;20037;-62
2021/10/05 07:50:18;;;;;;;15.30;10.30;;;13.90;91.60;;;;;;5013223;28;20026;-62
2021/10/05 07:52:44;;;;;;;13.55;10.27;;;13.90;91.70;;;;;;5013283;28;20037;-63
2021/10/05 07:55:09;;;;;;;14.35;11.18;;;13.90;91.80;;;;;;5013377;28;20026;-61
2021/10/05 07:57:35;;;;;;;13.93;10.52;;;13.90;92.10;;;;;;5012978;28;20021;-62
2021/10/05 08:00:03;;;;;;;13.98;10.25;;;13.90;92.10;;;;;;5013105;28;20536;-62
2021/10/05 08:02:29;;;;;;;12.05;9.93;;;13.90;92.10;;;;;;5013198;28;20022;-62
2021/10/05 08:04:54;;;;;;;13.88;9.93;;;14.00;92.00;;;;;;5013306;28;20454;-61
2021/10/05 08:07:20;;;;;;;13.70;10.15;;;14.00;92.00;;;;;;5012888;28;20029;-61
2021/10/05 08:09:46;;;;;;;12.95;10.23;;;14.00;91.90;;;;;;5012877;28;20025;-62
2021/10/05 08:12:11;;;;;;;14.55;10.20;;;14.10;92.10;;;;;;5012866;28;20543;-62
2021/10/05 08:14:39;;;;;;;13.63;10.23;;;14.10;92.30;;;;;;5013022;28;20034;-62
2021/10/05 08:17:05;;;;;;;13.93;10.48;;;14.20;92.30;;;;;;5012832;28;20116;-63
2021/10/05 08:19:30;;;;;;;13.18;10.43;;;14.20;92.30;;;;;;5012663;28;20053;-62
2021/10/05 08:21:56;;;;;;;15.35;9.88;;;14.20;92.30;;;;;;5012794;28;20493;-61
2021/10/05 08:24:22;;;;;;;14.55;10.75;;;14.30;92.40;;;;;;5012889;28;20025;-62
2021/10/05 08:26:48;;;;;;;15.50;10.07;;;14.30;92.30;;;;;;5006823;28;20114;-62
2021/10/05 08:29:14;;;;;;;11.35;8.93;;;14.30;92.20;;;;;;5012241;28;20106;-62
2021/10/05 08:31:39;;;;;;;11.88;8.63;;;14.60;92.00;;;;;;5004669;28;20457;-61
2021/10/05 08:34:05;;;;;;;11.88;9.10;;;14.70;91.30;;;;;;5000973;28;20045;-62
2021/10/05 08:36:31;;;;;;;10.88;8.05;;;14.80;91.00;;;;;;5000445;28;20026;-62
2021/10/05 08:38:56;;;;;;;12.00;9.25;;;14.90;90.80;;;;;;4992393;28;20034;-63
2021/10/05 08:41:22;;;;;;;10.63;8.13;;;14.90;90.70;;;;;;4991401;28;20033;-63
2021/10/05 08:43:50;;;;;;;11.35;7.90;;;14.90;90.60;;;;;;4992823;28;20018;-62
2021/10/05 08:46:16;;;;;;;12.07;8.50;;;15.00;90.70;;;;;;4999521;28;20164;-63
2021/10/05 08:48:42;;;;;;;10.15;8.30;;;15.00;90.70;;;;;;5002711;28;20050;-62
2021/10/05 08:51:08;;;;;;;10.55;8.30;;;15.00;90.60;;;;;;5008782;28;20497;-62
2021/10/05 08:53:39;;;;;;;10.95;8.25;;;15.00;90.60;;;;;;5009236;28;20033;-62
2021/10/05 08:56:07;;;;;;;12.90;8.40;;;15.00;90.60;;;;;;5010800;28;20484;-62
2021/10/05 08:58:33;;;;;;;11.30;7.95;;;15.00;90.80;;;;;;5011898;28;20056;-62
2021/10/05 09:01:16;;;;;;;10.25;7.85;;;15.10;90.70;;;;;;5012113;28;20150;-63
2021/10/05 09:03:51;;;;;;;11.57;7.93;;;15.00;90.80;;;;;;5011027;28;20080;-62
2021/10/05 09:06:17;;;;;;;11.35;8.13;;;15.00;90.80;;;;;;5010690;28;20031;-62
2021/10/05 09:08:44;;;;;;;11.43;8.00;;;15.00;90.80;;;;;;5011786;28;20113;-62
2021/10/05 09:11:12;;;;;;;10.98;8.07;;;15.00;90.90;;;;;;5010994;28;20046;-62
2021/10/05 09:13:40;;;;;;;11.95;7.60;;;15.00;90.90;;;;;;5012072;28;20030;-62
2021/10/05 09:16:26;;;;;;;9.80;7.22;;;15.10;90.90;;;;;;5011893;28;20049;-62
2021/10/05 09:18:51;;;;;;;10.00;7.40;;;15.10;90.80;;;;;;5011607;28;20100;-62
2021/10/05 09:21:17;;;;;;;10.15;7.07;;;15.10;91.00;;;;;;5011857;28;20108;-62
2021/10/05 09:24:01;;;;;;;9.93;7.35;;;15.10;90.90;;;;;;5012084;28;20022;-61
2021/10/05 09:26:41;;;;;;;9.85;7.25;;;15.10;90.90;;;;;;5011815;28;20033;-62
2021/10/05 09:29:16;;;;;;;10.35;7.38;;;15.10;90.90;;;;;;5011582;28;20045;-62
2021/10/05 09:31:46;;;;;;;11.23;7.28;;;15.10;90.90;;;;;;5012039;28;20033;-62
2021/10/05 09:34:12;;;;;;;9.05;6.93;;;15.20;91.10;;;;;;5012010;28;20037;-61
2021/10/05 09:36:38;;;;;;;9.60;7.35;;;15.20;91.00;;;;;;5011886;28;20025;-61
2021/10/05 09:39:03;;;;;;;9.55;6.40;;;15.10;91.00;;;;;;5010383;28;20042;-61
2021/10/05 09:41:29;;;;;;;9.30;6.70;;;15.20;91.20;;;;;;5015136;28;20029;-61
2021/10/05 09:44:07;;;;;;;8.93;6.32;;;15.10;91.10;;;;;;5015743;28;20022;-62
2021/10/05 09:46:33;;;;;;;8.57;6.45;;;15.20;91.10;;;;;;5015767;28;20080;-62
2021/10/05 09:49:08;;;;;;;10.88;6.45;;;15.20;91.10;;;;;;5015472;28;20543;-61
2021/10/05 09:51:34;;;;;;;7.68;5.35;;;15.20;91.20;;;;;;5007285;28;20033;-62
2021/10/05 09:54:00;;;;;;;6.82;4.80;;;15.20;90.90;;;;;;5008280;28;20503;-62
2021/10/05 09:56:28;;;;;;;8.00;4.88;;;15.10;90.90;;;;;;5015175;28;20400;-61
2021/10/05 09:58:55;;;;;;;6.95;4.25;;;15.10;91.00;;;;;;5013931;28;20489;-61
2021/10/05 10:01:23;;;;;;;14.38;4.88;;;15.00;90.80;;;;;;5014273;28;20041;-62
2021/10/05 10:03:49;;;;;;;15.32;4.53;;;15.00;91.00;;;;;;5015580;28;20030;-62
2021/10/05 10:06:15;;;;;;;10.25;4.63;;;15.00;90.90;;;;;;5015382;28;20037;-62
2021/10/05 10:08:50;;;;;;;8.40;3.97;;;15.00;90.80;;;;;;5015124;28;20022;-62
2021/10/05 10:11:16;;;;;;;9.43;3.85;;;15.00;91.00;;;;;;5015275;28;20416;-62
2021/10/05 10:13:47;;;;;;;7.35;4.18;;;14.90;90.90;;;;;;5015578;28;20041;-61
2021/10/05 10:16:13;;;;;;;6.50;3.60;;;15.00;90.90;;;;;;5015295;28;20026;-61
2021/10/05 10:18:49;;;;;;;9.52;3.90;;;15.00;91.00;;;;;;5001743;28;20265;-62
2021/10/05 10:21:25;;;;;;;25.38;4.82;;;15.10;90.80;;;;;;4995163;28;20033;-62
2021/10/05 10:24:05;;;;;;;14.57;4.22;;;15.10;90.60;;;;;;4994030;28;20022;-62
2021/10/05 10:26:31;;;;;;;16.35;4.25;;;15.10;89.90;;;;;;4994873;28;20022;-63
2021/10/05 10:28:59;;;;;;;14.80;4.60;;;15.20;90.10;;;;;;4993688;28;20031;-62
2021/10/05 10:31:33;;;;;;;15.90;4.28;;;15.20;90.10;;;;;;4994093;28;20034;-63
2021/10/05 10:33:59;;;;;;;11.23;4.10;;;15.20;90.30;;;;;;4995022;28;20041;-63
2021/10/05 10:36:30;;;;;;;9.77;4.28;;;15.20;90.40;;;;;;4993785;28;20026;-63
2021/10/05 10:39:20;;;;;;;13.20;4.20;;;15.20;90.60;;;;;;4994850;28;20038;-63
2021/10/05 10:41:59;;;;;;;10.50;4.05;;;15.20;90.60;;;;;;4995026;28;20061;-63
2021/10/05 10:44:30;;;;;;;9.25;3.60;;;15.20;90.70;;;;;;4993756;28;20117;-62
2021/10/05 10:47:14;;;;;;;11.30;3.42;;;15.20;90.70;;;;;;4994897;28;20026;-62
2021/10/05 10:49:52;;;;;;;9.95;4.20;;;15.20;90.70;;;;;;4994637;28;20057;-62
2021/10/05 10:52:30;;;;;;;10.00;3.40;;;15.20;90.60;;;;;;4992362;28;20026;-61
2021/10/05 10:54:57;;;;;;;7.63;3.35;;;15.20;90.70;;;;;;4993565;28;20429;-62
2021/10/05 10:57:38;;;;;;;5.53;3.20;;;15.20;90.80;;;;;;4994565;28;20076;-62
2021/10/05 11:00:28;;;;;;;9.43;3.50;;;15.20;90.80;;;;;;4994475;28;20564;-61
2021/10/05 11:02:55;;;;;;;9.10;3.30;;;15.20;90.70;;;;;;4983761;28;20073;-62
2021/10/05 11:05:22;;;;;;;7.10;3.38;;;15.20;90.70;;;;;;4994582;28;20026;-62
2021/10/05 11:07:56;;;;;;;6.80;3.20;;;15.20;90.90;;;;;;4994685;28;20050;-62
2021/10/05 11:10:30;;;;;;;7.22;3.50;;;15.30;90.70;;;;;;4994286;28;20434;-62
2021/10/05 11:13:07;;;;;;;6.82;3.13;;;15.20;90.70;;;;;;4994455;28;20505;-62
2021/10/05 11:15:35;;;;;;;7.60;3.40;;;15.30;90.90;;;;;;4994334;28;20027;-62
2021/10/05 11:18:23;;;;;;;6.88;2.88;;;15.30;90.90;;;;;;4994356;28;20038;-62
2021/10/05 11:20:52;;;;;;;5.80;3.13;;;15.30;90.90;;;;;;4994362;28;20022;-62
2021/10/05 11:23:20;;;;;;;5.32;3.08;;;15.30;90.80;;;;;;4994270;28;20029;-62
2021/10/05 11:25:52;;;;;;;9.02;3.00;;;15.30;91.10;;;;;;4994090;28;20022;-62
2021/10/05 11:28:23;;;;;;;5.30;3.00;;;15.30;91.00;;;;;;4993967;28;20122;-61
2021/10/05 11:30:50;;;;;;;6.18;2.70;;;15.30;90.80;;;;;;4994147;28;20478;-62
2021/10/05 11:33:31;;;;;;;5.78;3.05;;;15.30;90.90;;;;;;4993946;28;20034;-62
2021/10/05 11:36:00;;;;;;;5.70;2.70;;;15.30;90.90;;;;;;4994007;28;20022;-62
2021/10/05 11:38:43;;;;;;;5.35;2.75;;;15.30;91.40;;;;;;4993446;28;20109;-62
2021/10/05 11:41:09;;;;;;;5.40;2.50;;;15.30;91.00;;;;;;4993902;28;20018;-62
2021/10/05 11:43:43;;;;;;;5.38;2.92;;;15.30;91.00;;;;;;4993949;28;20065;-62
2021/10/05 11:46:20;;;;;;;4.47;2.60;;;15.30;91.10;;;;;;4993841;28;20505;-62
2021/10/05 11:48:51;;;;;;;4.60;2.67;;;15.40;91.60;;;;;;4992104;28;20030;-62
2021/10/05 11:51:19;;;;;;;5.43;2.65;;;15.40;91.80;;;;;;5009686;28;20030;-62
2021/10/05 11:53:46;;;;;;;5.03;2.47;;;15.40;91.70;;;;;;5012919;28;20033;-62
2021/10/05 11:56:14;;;;;;;5.22;2.30;;;15.40;91.50;;;;;;5011891;28;20115;-62
2021/10/05 11:58:40;;;;;;;5.95;2.75;;;15.40;91.30;;;;;;5012898;28;20397;-62
2021/10/05 12:01:17;;;;;;;5.43;2.70;;;15.40;91.50;;;;;;5013096;28;20488;-62
2021/10/05 12:03:47;;;;;;;8.00;2.50;;;15.50;91.40;;;;;;5012824;28;20076;-62
2021/10/05 12:06:28;;;;;;;4.43;2.40;;;15.40;91.90;;;;;;5011787;28;20037;-63
2021/10/05 12:08:55;;;;;;;4.20;2.22;;;15.50;91.40;;;;;;5012686;28;20497;-62
2021/10/05 12:11:21;;;;;;;4.25;2.60;;;15.50;91.50;;;;;;5012905;28;20038;-62
2021/10/05 12:13:46;;;;;;;6.35;2.50;;;15.50;92.30;;;;;;5012933;28;20055;-62
2021/10/05 12:16:14;;;;;;;5.18;2.53;;;15.50;92.20;;;;;;5012742;28;20363;-61
2021/10/05 12:18:40;;;;;;;4.53;2.40;;;15.50;92.40;;;;;;5012444;28;20034;-62
2021/10/05 12:21:09;;;;;;;5.03;2.45;;;15.50;92.30;;;;;;5012826;28;20033;-62
2021/10/05 12:23:35;;;;;;;4.22;2.33;;;15.50;91.70;;;;;;5012669;28;20154;-62
2021/10/05 12:26:11;;;;;;;4.40;2.15;;;15.50;91.50;;;;;;5012677;28;20029;-62
2021/10/05 12:28:38;;;;;;;4.50;2.42;;;15.50;91.70;;;;;;5012222;28;20468;-61
2021/10/05 12:31:16;;;;;;;4.53;2.20;;;15.50;91.70;;;;;;5012558;28;20044;-63
2021/10/05 12:33:53;;;;;;;3.85;2.10;;;15.50;91.30;;;;;;5012605;28;20026;-61
2021/10/05 12:36:20;;;;;;;3.67;2.22;;;15.50;91.00;;;;;;5011226;28;20116;-62
2021/10/05 12:38:45;;;;;;;3.90;2.13;;;15.60;91.10;;;;;;5011868;28;20510;-62
2021/10/05 12:41:11;;;;;;;4.03;2.33;;;15.50;91.10;;;;;;5012563;28;20034;-61
2021/10/05 12:43:39;;;;;;;3.50;1.88;;;15.50;91.80;;;;;;5012523;28;20485;-62
2021/10/05 12:46:13;;;;;;;3.75;1.90;;;15.50;91.00;;;;;;5012362;28;20026;-62